Lawrenceville, GA

3:57 PM EDT on September 17, 2014 (GMT -0400)
Norman Downes | Change Station
CLOSE
Current Station
Personal Weather Station
Location: Duluth, GA
Elevation: 1050 ft
Nearby Weather Stations

Elev 1050 ft 34.00 °N, 84.13 °W | Updated 14 minutes ago

Clear
Clear
81.1 °F
Feels Like 83 °F
N
0.0
Wind Variable Wind from NNW

Today
High -- | Low -- °F
--% Chance of Precip.
Yesterday
High -- | Low -- °F
Precip. -- in
7:20 AM 7:40 PM
Waning Crescent, 33% visible
Pressure 29.89 in
Visibility 10.0 miles
Clouds Few 4100 ft
Heat Index 83 °F
Dew Point 65 °F
Humidity 59%
Rainfall 0.00 in
Snow Depth Not available.
UV 8 out of 12
Pollen 8.80 out of 12
Ozone Good
PM2.5 Good
Flu Activity Not available.
METAR KPDK 171853Z 29008G14KT 10SM FEW041 28/16 A2993 RMK AO2 SLP120 T02830156

More Conditions Fewer Conditions

Pressure 29.89 in
Visibility 10.0 miles
Clouds Few 4100 ft
Heat Index 83 °F
Dew Point 65 °F
Humidity 59%
Rainfall 0.00 in
Snow Depth Not available.
UV 8 out of 12
Pollen 8.80 out of 12
Ozone Good
PM2.5 Good
Flu Activity Not available.
METAR KPDK 171853Z 29008G14KT 10SM FEW041 28/16 A2993 RMK AO2 SLP120 T02830156

More Conditions Fewer Conditions

10-Day Weather Forecast

Almanac

Astronomy

Sep. 17, 2014 Rise Set
Actual Time 7:20 AM EDT 7:40 PM EDT
Civil Twilight 6:55 AM EDT 8:05 PM EDT
Nautical Twilight 6:26 AM EDT 8:34 PM EDT
Astronomical Twilight 5:56 AM EDT 9:03 PM EDT
Moon 1:31 AM EDT 3:38 PM EDT
Length of Visible Light 13h 09m
Length of Day
12h 19m
Tomorrow will be 2m 7s shorter.
Waning Crescent, 33% of the Moon is Illuminated
Today
Waning Crescent
Sep 24
New
Oct 1
First Quarter
Oct 8
Full
Oct 15
Last Quarter

Today's Extremes

State Highs State Lows

Community

WunderPhotos

Upload Photos

1,754,149 photos uploaded!

Nearby

Air Quality

  Air Quality AQ Index Pollutant
Yesterday Good
PM10
Yesterday Good
OZONE
Current Good
PM2.5
Current Good
OZONE
Wednesday Moderate
PM2.5
Wednesday Good
OZONE
Thursday Moderate
PM2.5
Thursday Good
OZONE

Snow Depth

Station Depth Elevation
No new snow has been reported.

Earthquake Activity

City Distance Mag. Time & Date
No recent earthquake activity has been reported nearby.
Minimum magnitude displayed is 2.5.

Coastal Water Temperatures

Place Temperature
No Stations Reporting

Nearby Weather Stations